Spring Creek, South Dakota
Current Conditions -  °F | °C
As of 9:52 AM on Thursday 30 Oct 2014 (Local Time) from KVTN Reporting Station
Clear Clear  
Wind Chill: 40°   Ceiling: Unl
Heat Index: 45°   Visibility: 10mi
Dew Point: 34°   Wind: 10mph
Humidity: 65%   Direction: 300°WNW
Pressure: 30.24"   Gusts: NA
Location:  43.1381°N, 100.965°W
Report Text: KVTN 301452Z AUTO 30009KT 10SM CLR 07/01 A3024 RMK AO2 SLP251 T00720011 53025
Loading
Personal Weather Stations






























Interactive Weather Map New forecast layout! Learn more

10-Day Weather Forecast

Advertisements
Track Severe Weather on mobile